sensor_id;sensor_type;location;lat;lon;timestamp;temperature;humidity
55313;DHT22;46892;45.668;11.756;2024-02-04T00:00:09;3.50;83.80
55313;DHT22;46892;45.668;11.756;2024-02-04T00:02:36;3.50;83.40
55313;DHT22;46892;45.668;11.756;2024-02-04T00:05:02;3.50;83.60
55313;DHT22;46892;45.668;11.756;2024-02-04T00:07:28;3.50;83.10
55313;DHT22;46892;45.668;11.756;2024-02-04T00:09:54;3.40;83.10
55313;DHT22;46892;45.668;11.756;2024-02-04T00:12:20;3.30;83.20
55313;DHT22;46892;45.668;11.756;2024-02-04T00:14:46;3.40;83.50
55313;DHT22;46892;45.668;11.756;2024-02-04T00:17:15;3.30;83.70
55313;DHT22;46892;45.668;11.756;2024-02-04T00:19:40;3.30;84.10
55313;DHT22;46892;45.668;11.756;2024-02-04T00:22:06;3.30;84.50
55313;DHT22;46892;45.668;11.756;2024-02-04T00:24:32;3.40;84.70
55313;DHT22;46892;45.668;11.756;2024-02-04T00:26:58;3.40;83.90
55313;DHT22;46892;45.668;11.756;2024-02-04T00:29:23;3.40;83.50
55313;DHT22;46892;45.668;11.756;2024-02-04T00:31:49;3.40;83.90
55313;DHT22;46892;45.668;11.756;2024-02-04T00:34:14;3.40;82.60
55313;DHT22;46892;45.668;11.756;2024-02-04T00:36:40;3.30;82.50
55313;DHT22;46892;45.668;11.756;2024-02-04T00:39:05;3.20;83.10
55313;DHT22;46892;45.668;11.756;2024-02-04T00:41:33;3.10;83.50
55313;DHT22;46892;45.668;11.756;2024-02-04T00:43:58;3.10;83.80
55313;DHT22;46892;45.668;11.756;2024-02-04T00:46:24;3.10;84.30
55313;DHT22;46892;45.668;11.756;2024-02-04T00:48:50;3.10;84.50
55313;DHT22;46892;45.668;11.756;2024-02-04T00:51:15;3.10;84.60
55313;DHT22;46892;45.668;11.756;2024-02-04T00:53:43;3.10;85.40
55313;DHT22;46892;45.668;11.756;2024-02-04T00:56:08;3.10;85.20
55313;DHT22;46892;45.668;11.756;2024-02-04T00:58:35;3.20;84.90
55313;DHT22;46892;45.668;11.756;2024-02-04T01:01:00;3.20;84.60
55313;DHT22;46892;45.668;11.756;2024-02-04T01:03:26;3.20;84.80
55313;DHT22;46892;45.668;11.756;2024-02-04T01:05:51;3.00;84.40
55313;DHT22;46892;45.668;11.756;2024-02-04T01:08:17;2.90;85.20
55313;DHT22;46892;45.668;11.756;2024-02-04T01:10:43;2.80;85.50
55313;DHT22;46892;45.668;11.756;2024-02-04T01:13:08;2.90;85.80
55313;DHT22;46892;45.668;11.756;2024-02-04T01:15:34;3.00;85.90
55313;DHT22;46892;45.668;11.756;2024-02-04T01:17:59;2.90;84.90
55313;DHT22;46892;45.668;11.756;2024-02-04T01:20:25;2.80;85.50
55313;DHT22;46892;45.668;11.756;2024-02-04T01:22:51;2.80;86.20
55313;DHT22;46892;45.668;11.756;2024-02-04T01:25:16;2.80;86.30
55313;DHT22;46892;45.668;11.756;2024-02-04T01:27:42;2.80;85.90
55313;DHT22;46892;45.668;11.756;2024-02-04T01:30:08;2.90;86.30
55313;DHT22;46892;45.668;11.756;2024-02-04T01:32:33;2.90;86.00
55313;DHT22;46892;45.668;11.756;2024-02-04T01:34:59;2.90;85.30
55313;DHT22;46892;45.668;11.756;2024-02-04T01:37:25;2.90;85.50
55313;DHT22;46892;45.668;11.756;2024-02-04T01:39:50;2.80;85.40
55313;DHT22;46892;45.668;11.756;2024-02-04T01:42:16;2.70;85.70
55313;DHT22;46892;45.668;11.756;2024-02-04T01:44:41;2.70;86.40
55313;DHT22;46892;45.668;11.756;2024-02-04T01:47:07;2.70;86.20
55313;DHT22;46892;45.668;11.756;2024-02-04T01:49:33;2.80;86.50
55313;DHT22;46892;45.668;11.756;2024-02-04T01:51:59;2.80;85.80
55313;DHT22;46892;45.668;11.756;2024-02-04T01:54:25;2.70;85.80
55313;DHT22;46892;45.668;11.756;2024-02-04T01:56:50;2.80;86.30
55313;DHT22;46892;45.668;11.756;2024-02-04T01:59:17;2.70;86.50
55313;DHT22;46892;45.668;11.756;2024-02-04T02:01:43;2.70;85.90
55313;DHT22;46892;45.668;11.756;2024-02-04T02:04:09;2.70;86.00
55313;DHT22;46892;45.668;11.756;2024-02-04T02:06:35;2.70;86.40
55313;DHT22;46892;45.668;11.756;2024-02-04T02:09:07;2.70;86.30
55313;DHT22;46892;45.668;11.756;2024-02-04T02:11:37;2.80;86.50
55313;DHT22;46892;45.668;11.756;2024-02-04T02:14:05;2.80;86.80
55313;DHT22;46892;45.668;11.756;2024-02-04T02:16:32;2.80;86.90
55313;DHT22;46892;45.668;11.756;2024-02-04T02:19:00;2.90;86.90
55313;DHT22;46892;45.668;11.756;2024-02-04T02:24:27;2.80;86.10
55313;DHT22;46892;45.668;11.756;2024-02-04T02:26:53;2.80;86.50
55313;DHT22;46892;45.668;11.756;2024-02-04T02:29:19;2.80;86.90
55313;DHT22;46892;45.668;11.756;2024-02-04T02:31:45;2.80;86.60
55313;DHT22;46892;45.668;11.756;2024-02-04T02:34:11;2.80;85.60
55313;DHT22;46892;45.668;11.756;2024-02-04T02:36:37;2.80;84.90
55313;DHT22;46892;45.668;11.756;2024-02-04T02:41:34;2.70;85.20
55313;DHT22;46892;45.668;11.756;2024-02-04T02:44:00;2.60;85.50
55313;DHT22;46892;45.668;11.756;2024-02-04T02:46:26;2.60;86.00
55313;DHT22;46892;45.668;11.756;2024-02-04T02:48:52;2.60;86.20
55313;DHT22;46892;45.668;11.756;2024-02-04T02:51:18;2.70;86.20
55313;DHT22;46892;45.668;11.756;2024-02-04T02:53:44;2.70;86.00
55313;DHT22;46892;45.668;11.756;2024-02-04T02:56:09;2.80;85.40
55313;DHT22;46892;45.668;11.756;2024-02-04T02:58:35;2.70;84.00
55313;DHT22;46892;45.668;11.756;2024-02-04T03:01:00;2.60;84.30
55313;DHT22;46892;45.668;11.756;2024-02-04T03:03:26;2.50;84.50
55313;DHT22;46892;45.668;11.756;2024-02-04T03:05:52;2.50;84.80
55313;DHT22;46892;45.668;11.756;2024-02-04T03:08:17;2.30;85.30
55313;DHT22;46892;45.668;11.756;2024-02-04T03:10:43;2.30;85.60
55313;DHT22;46892;45.668;11.756;2024-02-04T03:13:08;2.30;85.70
55313;DHT22;46892;45.668;11.756;2024-02-04T03:15:34;2.40;85.90
55313;DHT22;46892;45.668;11.756;2024-02-04T03:17:59;2.50;86.30
55313;DHT22;46892;45.668;11.756;2024-02-04T03:20:25;2.50;85.30
55313;DHT22;46892;45.668;11.756;2024-02-04T03:22:51;2.50;85.50
55313;DHT22;46892;45.668;11.756;2024-02-04T03:25:16;2.50;84.80
55313;DHT22;46892;45.668;11.756;2024-02-04T03:27:42;2.30;83.30
55313;DHT22;46892;45.668;11.756;2024-02-04T03:30:08;2.20;84.30
55313;DHT22;46892;45.668;11.756;2024-02-04T03:32:33;2.10;85.10
55313;DHT22;46892;45.668;11.756;2024-02-04T03:35:02;1.90;84.40
55313;DHT22;46892;45.668;11.756;2024-02-04T03:37:28;1.80;84.40
55313;DHT22;46892;45.668;11.756;2024-02-04T03:39:54;1.80;86.00
55313;DHT22;46892;45.668;11.756;2024-02-04T03:42:19;1.70;86.40
55313;DHT22;46892;45.668;11.756;2024-02-04T03:44:46;1.80;86.80
55313;DHT22;46892;45.668;11.756;2024-02-04T03:47:12;1.80;86.40
55313;DHT22;46892;45.668;11.756;2024-02-04T03:49:38;1.70;85.40
55313;DHT22;46892;45.668;11.756;2024-02-04T03:52:03;1.60;85.60
55313;DHT22;46892;45.668;11.756;2024-02-04T03:54:29;1.70;85.50
55313;DHT22;46892;45.668;11.756;2024-02-04T03:56:54;1.70;85.10
55313;DHT22;46892;45.668;11.756;2024-02-04T03:59:20;1.70;85.70
55313;DHT22;46892;45.668;11.756;2024-02-04T04:01:49;1.60;85.70
55313;DHT22;46892;45.668;11.756;2024-02-04T04:04:15;1.60;86.20
55313;DHT22;46892;45.668;11.756;2024-02-04T04:06:42;1.70;86.20
55313;DHT22;46892;45.668;11.756;2024-02-04T04:09:07;1.60;86.60
55313;DHT22;46892;45.668;11.756;2024-02-04T04:11:33;1.70;86.70
55313;DHT22;46892;45.668;11.756;2024-02-04T04:13:58;1.60;87.10
55313;DHT22;46892;45.668;11.756;2024-02-04T04:16:24;1.60;86.40
55313;DHT22;46892;45.668;11.756;2024-02-04T04:18:50;1.60;86.80
55313;DHT22;46892;45.668;11.756;2024-02-04T04:21:15;1.50;86.30
55313;DHT22;46892;45.668;11.756;2024-02-04T04:23:41;1.50;86.60
55313;DHT22;46892;45.668;11.756;2024-02-04T04:26:07;1.40;87.20
55313;DHT22;46892;45.668;11.756;2024-02-04T04:28:32;1.50;87.20
55313;DHT22;46892;45.668;11.756;2024-02-04T04:30:58;1.50;86.90
55313;DHT22;46892;45.668;11.756;2024-02-04T04:33:23;1.50;86.70
55313;DHT22;46892;45.668;11.756;2024-02-04T04:35:49;1.40;87.60
55313;DHT22;46892;45.668;11.756;2024-02-04T04:38:15;1.30;88.20
55313;DHT22;46892;45.668;11.756;2024-02-04T04:40:40;1.40;88.40
55313;DHT22;46892;45.668;11.756;2024-02-04T04:43:06;1.40;87.70
55313;DHT22;46892;45.668;11.756;2024-02-04T04:45:31;1.20;85.10
55313;DHT22;46892;45.668;11.756;2024-02-04T04:47:57;1.10;85.90
55313;DHT22;46892;45.668;11.756;2024-02-04T04:50:23;1.10;86.40
55313;DHT22;46892;45.668;11.756;2024-02-04T04:52:48;1.10;86.80
55313;DHT22;46892;45.668;11.756;2024-02-04T04:55:14;1.20;87.00
55313;DHT22;46892;45.668;11.756;2024-02-04T04:57:40;1.30;87.20
55313;DHT22;46892;45.668;11.756;2024-02-04T05:00:05;1.30;88.10
55313;DHT22;46892;45.668;11.756;2024-02-04T05:02:32;1.30;88.10
55313;DHT22;46892;45.668;11.756;2024-02-04T05:04:59;1.40;88.40
55313;DHT22;46892;45.668;11.756;2024-02-04T05:07:24;1.30;86.90
55313;DHT22;46892;45.668;11.756;2024-02-04T05:09:51;1.30;86.60
55313;DHT22;46892;45.668;11.756;2024-02-04T05:12:17;1.20;88.00
55313;DHT22;46892;45.668;11.756;2024-02-04T05:14:42;1.30;89.10
55313;DHT22;46892;45.668;11.756;2024-02-04T05:17:08;1.30;88.90
55313;DHT22;46892;45.668;11.756;2024-02-04T05:19:35;1.40;88.30
55313;DHT22;46892;45.668;11.756;2024-02-04T05:22:00;1.30;87.50
55313;DHT22;46892;45.668;11.756;2024-02-04T05:24:26;1.30;88.00
55313;DHT22;46892;45.668;11.756;2024-02-04T05:26:52;1.30;87.90
55313;DHT22;46892;45.668;11.756;2024-02-04T05:29:17;1.40;87.90
55313;DHT22;46892;45.668;11.756;2024-02-04T05:31:43;1.30;87.70
55313;DHT22;46892;45.668;11.756;2024-02-04T05:34:09;1.40;87.30
55313;DHT22;46892;45.668;11.756;2024-02-04T05:36:35;1.40;87.40
55313;DHT22;46892;45.668;11.756;2024-02-04T05:39:13;1.30;86.60
55313;DHT22;46892;45.668;11.756;2024-02-04T05:41:39;1.30;86.80
55313;DHT22;46892;45.668;11.756;2024-02-04T05:44:05;1.40;86.60
55313;DHT22;46892;45.668;11.756;2024-02-04T05:46:31;1.50;87.20
55313;DHT22;46892;45.668;11.756;2024-02-04T05:48:57;1.30;86.30
55313;DHT22;46892;45.668;11.756;2024-02-04T05:51:23;1.30;87.20
55313;DHT22;46892;45.668;11.756;2024-02-04T05:53:49;1.40;87.40
55313;DHT22;46892;45.668;11.756;2024-02-04T05:56:14;1.40;87.40
55313;DHT22;46892;45.668;11.756;2024-02-04T05:58:40;1.40;87.40
55313;DHT22;46892;45.668;11.756;2024-02-04T06:01:05;1.40;87.70
55313;DHT22;46892;45.668;11.756;2024-02-04T06:03:31;1.50;87.70
55313;DHT22;46892;45.668;11.756;2024-02-04T06:05:57;1.50;87.20
55313;DHT22;46892;45.668;11.756;2024-02-04T06:08:22;1.40;87.50
55313;DHT22;46892;45.668;11.756;2024-02-04T06:10:48;1.40;87.40
55313;DHT22;46892;45.668;11.756;2024-02-04T06:13:13;1.40;87.80
55313;DHT22;46892;45.668;11.756;2024-02-04T06:15:39;1.40;87.60
55313;DHT22;46892;45.668;11.756;2024-02-04T06:18:05;1.30;87.60
55313;DHT22;46892;45.668;11.756;2024-02-04T06:20:30;1.40;87.70
55313;DHT22;46892;45.668;11.756;2024-02-04T06:22:56;1.40;87.50
55313;DHT22;46892;45.668;11.756;2024-02-04T06:25:23;1.40;87.50
55313;DHT22;46892;45.668;11.756;2024-02-04T06:27:49;1.50;87.60
55313;DHT22;46892;45.668;11.756;2024-02-04T06:30:14;1.50;87.40
55313;DHT22;46892;45.668;11.756;2024-02-04T06:32:41;1.60;87.50
55313;DHT22;46892;45.668;11.756;2024-02-04T06:35:06;1.60;87.60
55313;DHT22;46892;45.668;11.756;2024-02-04T06:37:32;1.60;87.60
55313;DHT22;46892;45.668;11.756;2024-02-04T06:39:57;1.60;87.20
55313;DHT22;46892;45.668;11.756;2024-02-04T06:42:23;1.60;87.10
55313;DHT22;46892;45.668;11.756;2024-02-04T06:44:49;1.60;87.30
55313;DHT22;46892;45.668;11.756;2024-02-04T06:47:14;1.60;87.80
55313;DHT22;46892;45.668;11.756;2024-02-04T06:49:43;1.70;87.80
55313;DHT22;46892;45.668;11.756;2024-02-04T06:52:09;1.70;87.10
55313;DHT22;46892;45.668;11.756;2024-02-04T06:54:34;1.80;86.60
55313;DHT22;46892;45.668;11.756;2024-02-04T06:57:00;1.80;86.60
55313;DHT22;46892;45.668;11.756;2024-02-04T06:59:25;1.90;86.00
55313;DHT22;46892;45.668;11.756;2024-02-04T07:01:51;1.90;85.80
55313;DHT22;46892;45.668;11.756;2024-02-04T07:04:18;1.90;85.50
55313;DHT22;46892;45.668;11.756;2024-02-04T07:06:47;1.80;85.30
55313;DHT22;46892;45.668;11.756;2024-02-04T07:09:12;1.70;84.90
55313;DHT22;46892;45.668;11.756;2024-02-04T07:11:38;1.80;85.50
55313;DHT22;46892;45.668;11.756;2024-02-04T07:14:03;1.70;85.60
55313;DHT22;46892;45.668;11.756;2024-02-04T07:16:31;1.60;86.20
55313;DHT22;46892;45.668;11.756;2024-02-04T07:18:56;1.80;87.10
55313;DHT22;46892;45.668;11.756;2024-02-04T07:21:22;1.90;87.50
55313;DHT22;46892;45.668;11.756;2024-02-04T07:23:48;2.20;87.00
55313;DHT22;46892;45.668;11.756;2024-02-04T07:26:13;2.30;85.80
55313;DHT22;46892;45.668;11.756;2024-02-04T07:28:39;2.30;85.30
55313;DHT22;46892;45.668;11.756;2024-02-04T07:31:05;2.20;85.50
55313;DHT22;46892;45.668;11.756;2024-02-04T07:33:30;2.30;85.80
55313;DHT22;46892;45.668;11.756;2024-02-04T07:35:56;2.40;85.70
55313;DHT22;46892;45.668;11.756;2024-02-04T07:38:22;2.50;85.30
55313;DHT22;46892;45.668;11.756;2024-02-04T07:40:48;2.50;84.60
55313;DHT22;46892;45.668;11.756;2024-02-04T07:43:13;2.40;84.70
55313;DHT22;46892;45.668;11.756;2024-02-04T07:45:39;2.30;85.40
55313;DHT22;46892;45.668;11.756;2024-02-04T07:48:06;2.30;85.90
55313;DHT22;46892;45.668;11.756;2024-02-04T07:50:32;2.40;86.70
55313;DHT22;46892;45.668;11.756;2024-02-04T07:52:57;2.70;86.20
55313;DHT22;46892;45.668;11.756;2024-02-04T07:55:23;2.70;85.90
55313;DHT22;46892;45.668;11.756;2024-02-04T07:57:49;2.80;85.50
55313;DHT22;46892;45.668;11.756;2024-02-04T08:00:14;2.90;85.20
55313;DHT22;46892;45.668;11.756;2024-02-04T08:02:40;2.80;85.00
55313;DHT22;46892;45.668;11.756;2024-02-04T08:05:05;2.80;85.50
55313;DHT22;46892;45.668;11.756;2024-02-04T08:07:31;2.80;86.20
55313;DHT22;46892;45.668;11.756;2024-02-04T08:09:57;2.90;86.60
55313;DHT22;46892;45.668;11.756;2024-02-04T08:12:23;3.00;86.10
55313;DHT22;46892;45.668;11.756;2024-02-04T08:14:48;3.20;86.00
55313;DHT22;46892;45.668;11.756;2024-02-04T08:17:14;3.30;85.70
55313;DHT22;46892;45.668;11.756;2024-02-04T08:19:40;3.30;85.60
55313;DHT22;46892;45.668;11.756;2024-02-04T08:22:06;3.40;85.40
55313;DHT22;46892;45.668;11.756;2024-02-04T08:24:32;3.40;85.70
55313;DHT22;46892;45.668;11.756;2024-02-04T08:26:58;3.50;86.30
55313;DHT22;46892;45.668;11.756;2024-02-04T08:29:24;3.50;86.00
55313;DHT22;46892;45.668;11.756;2024-02-04T08:31:50;3.60;86.90
55313;DHT22;46892;45.668;11.756;2024-02-04T08:34:15;3.80;86.90
55313;DHT22;46892;45.668;11.756;2024-02-04T08:36:42;3.80;86.90
55313;DHT22;46892;45.668;11.756;2024-02-04T08:39:08;3.90;86.60
55313;DHT22;46892;45.668;11.756;2024-02-04T08:41:34;4.00;86.90
55313;DHT22;46892;45.668;11.756;2024-02-04T08:44:00;4.10;87.00
55313;DHT22;46892;45.668;11.756;2024-02-04T08:46:25;4.10;87.00
55313;DHT22;46892;45.668;11.756;2024-02-04T08:48:51;4.10;86.70
55313;DHT22;46892;45.668;11.756;2024-02-04T08:51:17;4.10;86.50
55313;DHT22;46892;45.668;11.756;2024-02-04T08:53:44;4.10;86.30
55313;DHT22;46892;45.668;11.756;2024-02-04T08:56:09;4.00;86.70
55313;DHT22;46892;45.668;11.756;2024-02-04T08:58:35;4.00;87.00
55313;DHT22;46892;45.668;11.756;2024-02-04T09:01:03;4.00;87.10
55313;DHT22;46892;45.668;11.756;2024-02-04T09:03:28;4.10;87.00
55313;DHT22;46892;45.668;11.756;2024-02-04T09:05:55;4.10;87.10
55313;DHT22;46892;45.668;11.756;2024-02-04T09:08:20;4.20;87.50
55313;DHT22;46892;45.668;11.756;2024-02-04T09:10:46;4.20;87.10
55313;DHT22;46892;45.668;11.756;2024-02-04T09:13:11;4.30;87.30
55313;DHT22;46892;45.668;11.756;2024-02-04T09:15:37;4.40;87.40
55313;DHT22;46892;45.668;11.756;2024-02-04T09:18:03;4.50;87.10
55313;DHT22;46892;45.668;11.756;2024-02-04T09:20:28;4.60;87.10
55313;DHT22;46892;45.668;11.756;2024-02-04T09:22:54;4.80;88.20
55313;DHT22;46892;45.668;11.756;2024-02-04T09:25:19;4.80;86.70
55313;DHT22;46892;45.668;11.756;2024-02-04T09:27:45;4.90;85.50
55313;DHT22;46892;45.668;11.756;2024-02-04T09:30:11;5.10;87.00
55313;DHT22;46892;45.668;11.756;2024-02-04T09:32:37;5.30;86.60
55313;DHT22;46892;45.668;11.756;2024-02-04T09:35:03;5.40;85.70
55313;DHT22;46892;45.668;11.756;2024-02-04T09:37:28;5.70;84.90
55313;DHT22;46892;45.668;11.756;2024-02-04T09:39:54;5.90;84.70
55313;DHT22;46892;45.668;11.756;2024-02-04T09:42:20;6.20;84.40
55313;DHT22;46892;45.668;11.756;2024-02-04T09:44:49;6.30;84.30
55313;DHT22;46892;45.668;11.756;2024-02-04T09:47:15;6.40;82.50
55313;DHT22;46892;45.668;11.756;2024-02-04T09:49:42;6.50;82.00
55313;DHT22;46892;45.668;11.756;2024-02-04T09:52:08;6.70;81.90
55313;DHT22;46892;45.668;11.756;2024-02-04T09:54:35;6.80;82.70
55313;DHT22;46892;45.668;11.756;2024-02-04T09:57:03;6.90;81.40
55313;DHT22;46892;45.668;11.756;2024-02-04T09:59:29;7.20;82.60
55313;DHT22;46892;45.668;11.756;2024-02-04T10:01:55;7.30;81.70
55313;DHT22;46892;45.668;11.756;2024-02-04T10:04:20;7.50;80.70
55313;DHT22;46892;45.668;11.756;2024-02-04T10:06:46;7.60;79.80
55313;DHT22;46892;45.668;11.756;2024-02-04T10:09:12;7.70;79.50
55313;DHT22;46892;45.668;11.756;2024-02-04T10:11:37;7.90;79.00
55313;DHT22;46892;45.668;11.756;2024-02-04T10:14:03;8.00;78.90
55313;DHT22;46892;45.668;11.756;2024-02-04T10:16:29;8.00;78.50
55313;DHT22;46892;45.668;11.756;2024-02-04T10:18:54;8.00;78.50
55313;DHT22;46892;45.668;11.756;2024-02-04T10:21:21;8.20;77.80
55313;DHT22;46892;45.668;11.756;2024-02-04T10:23:49;8.20;77.20
55313;DHT22;46892;45.668;11.756;2024-02-04T10:26:15;8.30;77.10
55313;DHT22;46892;45.668;11.756;2024-02-04T10:28:41;8.20;76.60
55313;DHT22;46892;45.668;11.756;2024-02-04T10:31:10;8.30;76.80
55313;DHT22;46892;45.668;11.756;2024-02-04T10:33:36;8.30;76.80
55313;DHT22;46892;45.668;11.756;2024-02-04T10:36:02;8.30;77.10
55313;DHT22;46892;45.668;11.756;2024-02-04T10:38:29;8.40;78.00
55313;DHT22;46892;45.668;11.756;2024-02-04T10:40:54;8.50;77.40
55313;DHT22;46892;45.668;11.756;2024-02-04T10:43:20;8.60;76.20
55313;DHT22;46892;45.668;11.756;2024-02-04T10:45:47;8.70;76.40
55313;DHT22;46892;45.668;11.756;2024-02-04T10:48:13;8.80;75.90
55313;DHT22;46892;45.668;11.756;2024-02-04T10:50:40;8.80;75.40
55313;DHT22;46892;45.668;11.756;2024-02-04T10:53:08;8.90;75.70
55313;DHT22;46892;45.668;11.756;2024-02-04T10:55:40;8.90;75.40
55313;DHT22;46892;45.668;11.756;2024-02-04T10:58:13;9.00;73.30
55313;DHT22;46892;45.668;11.756;2024-02-04T11:00:43;9.10;74.00
55313;DHT22;46892;45.668;11.756;2024-02-04T11:03:10;9.30;72.40
55313;DHT22;46892;45.668;11.756;2024-02-04T11:05:36;9.40;72.80
55313;DHT22;46892;45.668;11.756;2024-02-04T11:08:05;9.50;73.30
55313;DHT22;46892;45.668;11.756;2024-02-04T11:10:31;9.60;72.50
55313;DHT22;46892;45.668;11.756;2024-02-04T11:13:00;9.70;71.70
55313;DHT22;46892;45.668;11.756;2024-02-04T11:15:29;9.70;72.20
55313;DHT22;46892;45.668;11.756;2024-02-04T11:20:34;9.80;71.60
55313;DHT22;46892;45.668;11.756;2024-02-04T11:25:47;9.80;71.10
55313;DHT22;46892;45.668;11.756;2024-02-04T11:28:13;9.80;71.20
55313;DHT22;46892;45.668;11.756;2024-02-04T11:30:40;9.80;71.30
55313;DHT22;46892;45.668;11.756;2024-02-04T11:33:09;9.90;71.10
55313;DHT22;46892;45.668;11.756;2024-02-04T11:35:37;9.90;70.80
55313;DHT22;46892;45.668;11.756;2024-02-04T11:38:03;10.00;70.60
55313;DHT22;46892;45.668;11.756;2024-02-04T11:40:34;10.00;69.90
55313;DHT22;46892;45.668;11.756;2024-02-04T11:43:06;10.00;69.70
55313;DHT22;46892;45.668;11.756;2024-02-04T11:45:32;10.00;70.70
55313;DHT22;46892;45.668;11.756;2024-02-04T11:48:01;10.10;71.40
55313;DHT22;46892;45.668;11.756;2024-02-04T11:50:28;10.20;71.40
55313;DHT22;46892;45.668;11.756;2024-02-04T11:53:16;10.30;71.60
55313;DHT22;46892;45.668;11.756;2024-02-04T11:55:41;10.30;72.00
55313;DHT22;46892;45.668;11.756;2024-02-04T11:58:06;10.30;71.70
55313;DHT22;46892;45.668;11.756;2024-02-04T12:00:35;10.40;70.90
55313;DHT22;46892;45.668;11.756;2024-02-04T12:03:05;10.40;70.00
55313;DHT22;46892;45.668;11.756;2024-02-04T12:05:31;10.50;71.10
55313;DHT22;46892;45.668;11.756;2024-02-04T12:08:02;10.50;69.20
55313;DHT22;46892;45.668;11.756;2024-02-04T12:10:28;10.40;69.40
55313;DHT22;46892;45.668;11.756;2024-02-04T12:12:55;10.40;69.00
55313;DHT22;46892;45.668;11.756;2024-02-04T12:15:21;10.40;68.50
55313;DHT22;46892;45.668;11.756;2024-02-04T12:17:47;10.30;68.30
55313;DHT22;46892;45.668;11.756;2024-02-04T12:20:13;10.30;68.90
55313;DHT22;46892;45.668;11.756;2024-02-04T12:22:38;10.30;69.70
55313;DHT22;46892;45.668;11.756;2024-02-04T12:25:05;10.30;70.20
55313;DHT22;46892;45.668;11.756;2024-02-04T12:27:31;10.30;70.90
55313;DHT22;46892;45.668;11.756;2024-02-04T12:29:56;10.30;70.80
55313;DHT22;46892;45.668;11.756;2024-02-04T12:32:22;10.20;70.50
55313;DHT22;46892;45.668;11.756;2024-02-04T12:34:48;10.10;70.90
55313;DHT22;46892;45.668;11.756;2024-02-04T12:37:14;10.00;71.00
55313;DHT22;46892;45.668;11.756;2024-02-04T12:39:39;10.00;70.50
55313;DHT22;46892;45.668;11.756;2024-02-04T12:42:05;10.00;70.70
55313;DHT22;46892;45.668;11.756;2024-02-04T12:44:31;9.90;70.30
55313;DHT22;46892;45.668;11.756;2024-02-04T12:46:57;9.90;70.60
55313;DHT22;46892;45.668;11.756;2024-02-04T12:49:22;10.00;70.40
55313;DHT22;46892;45.668;11.756;2024-02-04T12:51:48;9.90;69.70
55313;DHT22;46892;45.668;11.756;2024-02-04T12:54:14;10.00;70.20
55313;DHT22;46892;45.668;11.756;2024-02-04T12:56:41;10.00;69.90
55313;DHT22;46892;45.668;11.756;2024-02-04T12:59:07;10.10;68.50
55313;DHT22;46892;45.668;11.756;2024-02-04T13:01:33;10.10;68.90
55313;DHT22;46892;45.668;11.756;2024-02-04T13:03:58;10.20;68.30
55313;DHT22;46892;45.668;11.756;2024-02-04T13:06:24;10.20;69.30
55313;DHT22;46892;45.668;11.756;2024-02-04T13:08:54;10.20;69.40
55313;DHT22;46892;45.668;11.756;2024-02-04T13:11:19;10.20;68.80
55313;DHT22;46892;45.668;11.756;2024-02-04T13:13:45;10.20;68.50
55313;DHT22;46892;45.668;11.756;2024-02-04T13:16:10;10.20;69.60
55313;DHT22;46892;45.668;11.756;2024-02-04T13:18:36;10.10;70.00
55313;DHT22;46892;45.668;11.756;2024-02-04T13:21:02;10.10;70.20
55313;DHT22;46892;45.668;11.756;2024-02-04T13:23:28;10.10;69.90
55313;DHT22;46892;45.668;11.756;2024-02-04T13:25:53;10.20;69.80
55313;DHT22;46892;45.668;11.756;2024-02-04T13:28:19;10.20;70.00
55313;DHT22;46892;45.668;11.756;2024-02-04T13:30:44;10.30;69.90
55313;DHT22;46892;45.668;11.756;2024-02-04T13:33:10;10.20;70.20
55313;DHT22;46892;45.668;11.756;2024-02-04T13:35:36;10.30;69.40
55313;DHT22;46892;45.668;11.756;2024-02-04T13:38:01;10.30;69.70
55313;DHT22;46892;45.668;11.756;2024-02-04T13:40:27;10.30;69.60
55313;DHT22;46892;45.668;11.756;2024-02-04T13:42:53;10.30;69.80
55313;DHT22;46892;45.668;11.756;2024-02-04T13:45:18;10.20;70.20
55313;DHT22;46892;45.668;11.756;2024-02-04T13:47:45;10.20;70.00
55313;DHT22;46892;45.668;11.756;2024-02-04T13:50:11;10.20;70.40
55313;DHT22;46892;45.668;11.756;2024-02-04T13:52:36;10.30;72.40
55313;DHT22;46892;45.668;11.756;2024-02-04T13:55:03;10.30;72.10
55313;DHT22;46892;45.668;11.756;2024-02-04T13:57:32;10.30;72.00
55313;DHT22;46892;45.668;11.756;2024-02-04T13:59:58;10.20;72.30
55313;DHT22;46892;45.668;11.756;2024-02-04T14:02:23;10.20;71.90
55313;DHT22;46892;45.668;11.756;2024-02-04T14:04:51;10.20;71.60
55313;DHT22;46892;45.668;11.756;2024-02-04T14:07:18;10.20;71.60
55313;DHT22;46892;45.668;11.756;2024-02-04T14:09:43;10.20;72.00
55313;DHT22;46892;45.668;11.756;2024-02-04T14:12:09;10.20;72.40
55313;DHT22;46892;45.668;11.756;2024-02-04T14:14:36;10.30;72.10
55313;DHT22;46892;45.668;11.756;2024-02-04T14:17:02;10.30;71.80
55313;DHT22;46892;45.668;11.756;2024-02-04T14:19:28;10.30;71.50
55313;DHT22;46892;45.668;11.756;2024-02-04T14:21:54;10.40;71.70
55313;DHT22;46892;45.668;11.756;2024-02-04T14:24:20;10.40;72.10
55313;DHT22;46892;45.668;11.756;2024-02-04T14:26:45;10.40;72.00
55313;DHT22;46892;45.668;11.756;2024-02-04T14:29:11;10.50;70.70
55313;DHT22;46892;45.668;11.756;2024-02-04T14:31:36;10.30;71.10
55313;DHT22;46892;45.668;11.756;2024-02-04T14:34:02;10.40;70.60
55313;DHT22;46892;45.668;11.756;2024-02-04T14:36:28;10.50;70.90
55313;DHT22;46892;45.668;11.756;2024-02-04T14:38:53;10.40;71.20
55313;DHT22;46892;45.668;11.756;2024-02-04T14:41:19;10.30;70.40
55313;DHT22;46892;45.668;11.756;2024-02-04T14:43:45;10.30;69.90
55313;DHT22;46892;45.668;11.756;2024-02-04T14:46:10;10.50;69.40
55313;DHT22;46892;45.668;11.756;2024-02-04T14:48:36;10.30;70.10
55313;DHT22;46892;45.668;11.756;2024-02-04T14:51:03;10.30;70.30
55313;DHT22;46892;45.668;11.756;2024-02-04T14:53:28;10.30;70.30
55313;DHT22;46892;45.668;11.756;2024-02-04T14:55:54;10.20;70.90
55313;DHT22;46892;45.668;11.756;2024-02-04T14:58:21;10.10;71.10
55313;DHT22;46892;45.668;11.756;2024-02-04T15:00:47;10.10;71.10
55313;DHT22;46892;45.668;11.756;2024-02-04T15:03:13;10.00;72.40
55313;DHT22;46892;45.668;11.756;2024-02-04T15:05:40;9.90;72.40
55313;DHT22;46892;45.668;11.756;2024-02-04T15:08:05;9.90;71.90
55313;DHT22;46892;45.668;11.756;2024-02-04T15:10:31;9.80;72.50
55313;DHT22;46892;45.668;11.756;2024-02-04T15:12:57;9.80;72.70
55313;DHT22;46892;45.668;11.756;2024-02-04T15:15:22;9.70;73.00
55313;DHT22;46892;45.668;11.756;2024-02-04T15:17:48;9.60;73.10
55313;DHT22;46892;45.668;11.756;2024-02-04T15:20:14;9.50;73.10
55313;DHT22;46892;45.668;11.756;2024-02-04T15:22:43;9.50;73.40
55313;DHT22;46892;45.668;11.756;2024-02-04T15:25:09;9.40;73.50
55313;DHT22;46892;45.668;11.756;2024-02-04T15:27:35;9.40;73.80
55313;DHT22;46892;45.668;11.756;2024-02-04T15:30:01;9.30;73.70